sensor_id;sensor_type;location;lat;lon;timestamp;temperature;humidity
70475;DHT22;57944;48.722;9.316;2023-04-03T00:01:33;3.30;99.90
70475;DHT22;57944;48.722;9.316;2023-04-03T00:04:05;3.40;99.90
70475;DHT22;57944;48.722;9.316;2023-04-03T00:06:38;3.50;99.90
70475;DHT22;57944;48.722;9.316;2023-04-03T00:09:08;3.30;99.90
70475;DHT22;57944;48.722;9.316;2023-04-03T00:11:38;3.30;99.90
70475;DHT22;57944;48.722;9.316;2023-04-03T00:14:08;3.40;99.90
70475;DHT22;57944;48.722;9.316;2023-04-03T00:16:38;3.30;99.90
70475;DHT22;57944;48.722;9.316;2023-04-03T00:19:09;3.30;99.90
70475;DHT22;57944;48.722;9.316;2023-04-03T00:21:42;3.30;99.90
70475;DHT22;57944;48.722;9.316;2023-04-03T00:24:12;3.30;99.90
70475;DHT22;57944;48.722;9.316;2023-04-03T00:26:42;3.20;99.90
70475;DHT22;57944;48.722;9.316;2023-04-03T00:29:13;3.20;99.90
70475;DHT22;57944;48.722;9.316;2023-04-03T00:31:43;3.10;99.90
70475;DHT22;57944;48.722;9.316;2023-04-03T00:34:13;2.90;99.90
70475;DHT22;57944;48.722;9.316;2023-04-03T00:36:46;2.90;99.90
70475;DHT22;57944;48.722;9.316;2023-04-03T00:39:16;2.90;99.90
70475;DHT22;57944;48.722;9.316;2023-04-03T00:41:47;2.80;99.90
70475;DHT22;57944;48.722;9.316;2023-04-03T00:44:18;2.70;99.90
70475;DHT22;57944;48.722;9.316;2023-04-03T00:46:49;2.90;99.90
70475;DHT22;57944;48.722;9.316;2023-04-03T00:49:20;2.90;99.90
70475;DHT22;57944;48.722;9.316;2023-04-03T00:51:53;2.90;99.90
70475;DHT22;57944;48.722;9.316;2023-04-03T00:54:24;2.80;99.90
70475;DHT22;57944;48.722;9.316;2023-04-03T00:56:55;2.80;99.90
70475;DHT22;57944;48.722;9.316;2023-04-03T00:59:29;2.80;99.90
70475;DHT22;57944;48.722;9.316;2023-04-03T01:02:01;3.00;99.90
70475;DHT22;57944;48.722;9.316;2023-04-03T01:04:32;3.30;99.90
70475;DHT22;57944;48.722;9.316;2023-04-03T01:07:07;3.40;99.90
70475;DHT22;57944;48.722;9.316;2023-04-03T01:09:39;3.50;99.90
70475;DHT22;57944;48.722;9.316;2023-04-03T01:12:14;3.60;99.90
70475;DHT22;57944;48.722;9.316;2023-04-03T01:14:48;3.70;99.90
70475;DHT22;57944;48.722;9.316;2023-04-03T01:17:26;3.80;99.90
70475;DHT22;57944;48.722;9.316;2023-04-03T01:20:09;3.80;99.90
70475;DHT22;57944;48.722;9.316;2023-04-03T01:23:06;3.80;99.90
70475;DHT22;57944;48.722;9.316;2023-04-03T01:25:51;3.60;99.90
70475;DHT22;57944;48.722;9.316;2023-04-03T01:28:23;3.60;99.90
70475;DHT22;57944;48.722;9.316;2023-04-03T01:30:57;3.60;99.90
70475;DHT22;57944;48.722;9.316;2023-04-03T01:33:37;3.50;99.90
70475;DHT22;57944;48.722;9.316;2023-04-03T01:36:07;3.70;99.90
70475;DHT22;57944;48.722;9.316;2023-04-03T01:38:39;3.70;99.90
70475;DHT22;57944;48.722;9.316;2023-04-03T01:41:09;3.50;99.90
70475;DHT22;57944;48.722;9.316;2023-04-03T01:43:40;3.50;99.90
70475;DHT22;57944;48.722;9.316;2023-04-03T01:46:10;3.50;99.90
70475;DHT22;57944;48.722;9.316;2023-04-03T01:48:43;3.40;99.90
70475;DHT22;57944;48.722;9.316;2023-04-03T01:51:13;3.30;99.90
70475;DHT22;57944;48.722;9.316;2023-04-03T01:53:44;3.40;99.90
70475;DHT22;57944;48.722;9.316;2023-04-03T01:56:14;3.60;99.90
70475;DHT22;57944;48.722;9.316;2023-04-03T01:58:44;3.70;99.90
70475;DHT22;57944;48.722;9.316;2023-04-03T02:01:15;3.80;99.90
70475;DHT22;57944;48.722;9.316;2023-04-03T02:03:48;3.70;99.90
70475;DHT22;57944;48.722;9.316;2023-04-03T02:06:18;3.40;99.90
70475;DHT22;57944;48.722;9.316;2023-04-03T02:08:48;3.30;99.90
70475;DHT22;57944;48.722;9.316;2023-04-03T02:11:19;3.30;99.90
70475;DHT22;57944;48.722;9.316;2023-04-03T02:13:49;3.30;99.90
70475;DHT22;57944;48.722;9.316;2023-04-03T02:16:19;3.20;99.90
70475;DHT22;57944;48.722;9.316;2023-04-03T02:18:52;3.20;99.90
70475;DHT22;57944;48.722;9.316;2023-04-03T02:21:22;3.40;99.90
70475;DHT22;57944;48.722;9.316;2023-04-03T02:23:53;3.40;99.90
70475;DHT22;57944;48.722;9.316;2023-04-03T02:26:24;3.30;99.90
70475;DHT22;57944;48.722;9.316;2023-04-03T02:28:54;3.50;99.90
70475;DHT22;57944;48.722;9.316;2023-04-03T02:31:24;3.50;99.90
70475;DHT22;57944;48.722;9.316;2023-04-03T02:33:58;3.50;99.90
70475;DHT22;57944;48.722;9.316;2023-04-03T02:36:29;3.60;99.90
70475;DHT22;57944;48.722;9.316;2023-04-03T02:39:02;3.60;99.90
70475;DHT22;57944;48.722;9.316;2023-04-03T02:41:34;3.50;99.90
70475;DHT22;57944;48.722;9.316;2023-04-03T02:44:11;3.40;99.90
70475;DHT22;57944;48.722;9.316;2023-04-03T02:46:42;3.50;99.90
70475;DHT22;57944;48.722;9.316;2023-04-03T02:49:14;3.70;99.90
70475;DHT22;57944;48.722;9.316;2023-04-03T02:51:45;3.50;99.90
70475;DHT22;57944;48.722;9.316;2023-04-03T02:54:15;3.60;99.90
70475;DHT22;57944;48.722;9.316;2023-04-03T02:56:50;3.50;99.90
70475;DHT22;57944;48.722;9.316;2023-04-03T02:59:21;3.40;99.90
70475;DHT22;57944;48.722;9.316;2023-04-03T03:01:51;3.50;99.90
70475;DHT22;57944;48.722;9.316;2023-04-03T03:04:25;3.50;99.90
70475;DHT22;57944;48.722;9.316;2023-04-03T03:06:56;3.30;99.90
70475;DHT22;57944;48.722;9.316;2023-04-03T03:09:28;3.20;99.90
70475;DHT22;57944;48.722;9.316;2023-04-03T03:11:58;3.30;99.90
70475;DHT22;57944;48.722;9.316;2023-04-03T03:14:29;3.30;99.90
70475;DHT22;57944;48.722;9.316;2023-04-03T03:16:59;3.20;99.90
70475;DHT22;57944;48.722;9.316;2023-04-03T03:19:32;3.20;99.90
70475;DHT22;57944;48.722;9.316;2023-04-03T03:22:02;3.20;99.90
70475;DHT22;57944;48.722;9.316;2023-04-03T03:24:33;3.30;99.90
70475;DHT22;57944;48.722;9.316;2023-04-03T03:27:04;3.30;99.90
70475;DHT22;57944;48.722;9.316;2023-04-03T03:29:34;3.20;99.90
70475;DHT22;57944;48.722;9.316;2023-04-03T03:32:05;3.20;99.90
70475;DHT22;57944;48.722;9.316;2023-04-03T03:34:38;3.10;99.90
70475;DHT22;57944;48.722;9.316;2023-04-03T03:37:08;3.30;99.90
70475;DHT22;57944;48.722;9.316;2023-04-03T03:39:38;3.30;99.90
70475;DHT22;57944;48.722;9.316;2023-04-03T03:42:09;3.40;99.90
70475;DHT22;57944;48.722;9.316;2023-04-03T03:44:39;3.40;99.90
70475;DHT22;57944;48.722;9.316;2023-04-03T03:47:09;3.20;99.90
70475;DHT22;57944;48.722;9.316;2023-04-03T03:49:42;3.30;99.90
70475;DHT22;57944;48.722;9.316;2023-04-03T03:52:13;3.30;99.90
70475;DHT22;57944;48.722;9.316;2023-04-03T03:54:43;3.30;99.90
70475;DHT22;57944;48.722;9.316;2023-04-03T03:57:15;3.20;99.90
70475;DHT22;57944;48.722;9.316;2023-04-03T03:59:45;3.20;99.90
70475;DHT22;57944;48.722;9.316;2023-04-03T04:02:18;3.30;99.90
70475;DHT22;57944;48.722;9.316;2023-04-03T04:04:51;3.30;99.90
70475;DHT22;57944;48.722;9.316;2023-04-03T04:07:21;3.30;99.90
70475;DHT22;57944;48.722;9.316;2023-04-03T04:09:56;3.10;99.90
70475;DHT22;57944;48.722;9.316;2023-04-03T04:12:26;3.10;99.90
70475;DHT22;57944;48.722;9.316;2023-04-03T04:14:56;3.30;99.90
70475;DHT22;57944;48.722;9.316;2023-04-03T04:17:27;3.20;99.90
70475;DHT22;57944;48.722;9.316;2023-04-03T04:20:01;3.20;99.90
70475;DHT22;57944;48.722;9.316;2023-04-03T04:22:32;3.20;99.90
70475;DHT22;57944;48.722;9.316;2023-04-03T04:25:03;3.30;99.90
70475;DHT22;57944;48.722;9.316;2023-04-03T04:27:36;3.30;99.90
70475;DHT22;57944;48.722;9.316;2023-04-03T04:30:07;3.40;99.90
70475;DHT22;57944;48.722;9.316;2023-04-03T04:32:40;3.40;99.90
70475;DHT22;57944;48.722;9.316;2023-04-03T04:35:13;3.50;99.90
70475;DHT22;57944;48.722;9.316;2023-04-03T04:37:46;3.50;99.90
70475;DHT22;57944;48.722;9.316;2023-04-03T04:40:17;3.30;99.90
70475;DHT22;57944;48.722;9.316;2023-04-03T04:42:48;3.30;99.90
70475;DHT22;57944;48.722;9.316;2023-04-03T04:45:18;3.40;99.90
70475;DHT22;57944;48.722;9.316;2023-04-03T04:47:49;3.30;99.90
70475;DHT22;57944;48.722;9.316;2023-04-03T04:50:22;3.50;99.90
70475;DHT22;57944;48.722;9.316;2023-04-03T04:52:54;3.50;99.90
70475;DHT22;57944;48.722;9.316;2023-04-03T04:55:24;3.50;99.90
70475;DHT22;57944;48.722;9.316;2023-04-03T04:57:55;3.50;99.90
70475;DHT22;57944;48.722;9.316;2023-04-03T05:00:28;3.50;99.90
70475;DHT22;57944;48.722;9.316;2023-04-03T05:02:59;3.60;99.90
70475;DHT22;57944;48.722;9.316;2023-04-03T05:05:41;3.40;99.90
70475;DHT22;57944;48.722;9.316;2023-04-03T05:08:12;3.40;99.90
70475;DHT22;57944;48.722;9.316;2023-04-03T05:10:44;3.50;99.90
70475;DHT22;57944;48.722;9.316;2023-04-03T05:13:16;3.40;99.90
70475;DHT22;57944;48.722;9.316;2023-04-03T05:15:47;3.50;99.90
70475;DHT22;57944;48.722;9.316;2023-04-03T05:18:17;3.50;99.90
70475;DHT22;57944;48.722;9.316;2023-04-03T05:20:51;3.50;99.90
70475;DHT22;57944;48.722;9.316;2023-04-03T05:23:23;3.60;99.90
70475;DHT22;57944;48.722;9.316;2023-04-03T05:25:55;3.60;99.90
70475;DHT22;57944;48.722;9.316;2023-04-03T05:28:26;3.70;99.90
70475;DHT22;57944;48.722;9.316;2023-04-03T05:30:57;3.70;99.90
70475;DHT22;57944;48.722;9.316;2023-04-03T05:33:33;3.70;99.90
70475;DHT22;57944;48.722;9.316;2023-04-03T05:36:08;3.80;99.90
70475;DHT22;57944;48.722;9.316;2023-04-03T05:38:44;3.70;99.90
70475;DHT22;57944;48.722;9.316;2023-04-03T05:41:15;3.60;99.90
70475;DHT22;57944;48.722;9.316;2023-04-03T05:43:46;3.60;99.90
70475;DHT22;57944;48.722;9.316;2023-04-03T05:46:18;3.60;99.90
70475;DHT22;57944;48.722;9.316;2023-04-03T05:48:53;3.50;99.90
70475;DHT22;57944;48.722;9.316;2023-04-03T05:51:30;3.40;99.90
70475;DHT22;57944;48.722;9.316;2023-04-03T05:54:12;3.40;99.90
70475;DHT22;57944;48.722;9.316;2023-04-03T05:56:46;3.40;99.90
70475;DHT22;57944;48.722;9.316;2023-04-03T05:59:18;3.50;99.90
70475;DHT22;57944;48.722;9.316;2023-04-03T06:01:53;3.50;99.90
70475;DHT22;57944;48.722;9.316;2023-04-03T06:04:23;3.50;99.90
70475;DHT22;57944;48.722;9.316;2023-04-03T06:06:57;3.70;99.90
70475;DHT22;57944;48.722;9.316;2023-04-03T06:09:27;3.80;99.90
70475;DHT22;57944;48.722;9.316;2023-04-03T06:11:58;3.90;99.90
70475;DHT22;57944;48.722;9.316;2023-04-03T06:14:30;4.00;99.90
70475;DHT22;57944;48.722;9.316;2023-04-03T06:17:00;4.30;99.90
70475;DHT22;57944;48.722;9.316;2023-04-03T06:19:31;4.60;99.90
70475;DHT22;57944;48.722;9.316;2023-04-03T06:22:04;5.00;99.90
70475;DHT22;57944;48.722;9.316;2023-04-03T06:24:34;5.30;99.90
70475;DHT22;57944;48.722;9.316;2023-04-03T06:27:04;5.40;99.90
70475;DHT22;57944;48.722;9.316;2023-04-03T06:29:34;5.30;99.90
70475;DHT22;57944;48.722;9.316;2023-04-03T06:32:05;5.10;99.90
70475;DHT22;57944;48.722;9.316;2023-04-03T06:34:35;5.00;99.90
70475;DHT22;57944;48.722;9.316;2023-04-03T06:37:09;4.90;99.90
70475;DHT22;57944;48.722;9.316;2023-04-03T06:39:40;5.20;99.90
70475;DHT22;57944;48.722;9.316;2023-04-03T06:42:11;5.30;99.90
70475;DHT22;57944;48.722;9.316;2023-04-03T06:44:52;5.30;99.90
70475;DHT22;57944;48.722;9.316;2023-04-03T06:47:22;5.20;99.90
70475;DHT22;57944;48.722;9.316;2023-04-03T06:49:53;5.40;99.90
70475;DHT22;57944;48.722;9.316;2023-04-03T06:52:27;5.70;99.90
70475;DHT22;57944;48.722;9.316;2023-04-03T06:54:57;5.90;99.90
70475;DHT22;57944;48.722;9.316;2023-04-03T06:57:27;5.90;99.90
70475;DHT22;57944;48.722;9.316;2023-04-03T06:59:58;5.70;99.90
70475;DHT22;57944;48.722;9.316;2023-04-03T07:02:29;5.70;99.90
70475;DHT22;57944;48.722;9.316;2023-04-03T07:04:59;5.70;99.90
70475;DHT22;57944;48.722;9.316;2023-04-03T07:07:32;5.70;99.90
70475;DHT22;57944;48.722;9.316;2023-04-03T07:10:03;5.90;99.90
70475;DHT22;57944;48.722;9.316;2023-04-03T07:12:34;6.30;99.90
70475;DHT22;57944;48.722;9.316;2023-04-03T07:15:05;6.30;99.90
70475;DHT22;57944;48.722;9.316;2023-04-03T07:17:36;6.40;99.90
70475;DHT22;57944;48.722;9.316;2023-04-03T07:20:07;5.90;99.90
70475;DHT22;57944;48.722;9.316;2023-04-03T07:22:41;6.00;99.90
70475;DHT22;57944;48.722;9.316;2023-04-03T07:25:11;6.10;99.90
70475;DHT22;57944;48.722;9.316;2023-04-03T07:27:41;6.30;99.90
70475;DHT22;57944;48.722;9.316;2023-04-03T07:30:12;6.20;99.90
70475;DHT22;57944;48.722;9.316;2023-04-03T07:32:43;6.20;99.90
70475;DHT22;57944;48.722;9.316;2023-04-03T07:35:13;6.60;99.90
70475;DHT22;57944;48.722;9.316;2023-04-03T07:37:47;7.10;99.90
70475;DHT22;57944;48.722;9.316;2023-04-03T07:40:17;7.30;99.90
70475;DHT22;57944;48.722;9.316;2023-04-03T07:42:48;7.60;99.90
70475;DHT22;57944;48.722;9.316;2023-04-03T07:45:19;7.70;99.90
70475;DHT22;57944;48.722;9.316;2023-04-03T07:47:49;7.70;99.90
70475;DHT22;57944;48.722;9.316;2023-04-03T07:50:19;7.70;99.90
70475;DHT22;57944;48.722;9.316;2023-04-03T07:52:54;7.70;99.90
70475;DHT22;57944;48.722;9.316;2023-04-03T07:55:24;7.40;99.90
70475;DHT22;57944;48.722;9.316;2023-04-03T07:57:54;7.40;99.90
70475;DHT22;57944;48.722;9.316;2023-04-03T08:00:25;7.50;99.90
70475;DHT22;57944;48.722;9.316;2023-04-03T08:02:55;8.20;99.90
70475;DHT22;57944;48.722;9.316;2023-04-03T08:05:26;8.40;99.90
70475;DHT22;57944;48.722;9.316;2023-04-03T08:07:58;9.30;99.90
70475;DHT22;57944;48.722;9.316;2023-04-03T08:10:29;9.60;99.80
70475;DHT22;57944;48.722;9.316;2023-04-03T08:13:00;8.70;99.80
70475;DHT22;57944;48.722;9.316;2023-04-03T08:15:30;8.60;99.90
70475;DHT22;57944;48.722;9.316;2023-04-03T08:18:01;8.60;99.90
70475;DHT22;57944;48.722;9.316;2023-04-03T08:20:32;8.80;99.90
70475;DHT22;57944;48.722;9.316;2023-04-03T08:23:05;8.90;99.90
70475;DHT22;57944;48.722;9.316;2023-04-03T08:25:37;8.40;99.90
70475;DHT22;57944;48.722;9.316;2023-04-03T08:28:07;8.30;99.90
70475;DHT22;57944;48.722;9.316;2023-04-03T08:30:38;8.30;99.90
70475;DHT22;57944;48.722;9.316;2023-04-03T08:33:09;8.00;99.90
70475;DHT22;57944;48.722;9.316;2023-04-03T08:35:40;8.60;99.90
70475;DHT22;57944;48.722;9.316;2023-04-03T08:38:13;8.90;99.90
70475;DHT22;57944;48.722;9.316;2023-04-03T08:40:43;9.20;99.90
70475;DHT22;57944;48.722;9.316;2023-04-03T08:43:20;9.60;98.30
70475;DHT22;57944;48.722;9.316;2023-04-03T08:46:01;9.50;98.20
70475;DHT22;57944;48.722;9.316;2023-04-03T08:48:35;9.60;97.80
70475;DHT22;57944;48.722;9.316;2023-04-03T08:51:11;10.00;97.50
70475;DHT22;57944;48.722;9.316;2023-04-03T08:53:49;9.40;97.40
70475;DHT22;57944;48.722;9.316;2023-04-03T08:56:26;9.10;97.60
70475;DHT22;57944;48.722;9.316;2023-04-03T08:58:56;8.60;97.50
70475;DHT22;57944;48.722;9.316;2023-04-03T09:01:30;8.80;97.80
70475;DHT22;57944;48.722;9.316;2023-04-03T09:04:10;8.90;97.90
70475;DHT22;57944;48.722;9.316;2023-04-03T09:06:43;8.90;97.80
70475;DHT22;57944;48.722;9.316;2023-04-03T09:09:24;9.00;97.60
70475;DHT22;57944;48.722;9.316;2023-04-03T09:12:05;8.60;97.90
70475;DHT22;57944;48.722;9.316;2023-04-03T09:14:53;8.40;97.90
70475;DHT22;57944;48.722;9.316;2023-04-03T09:17:37;8.60;98.00
70475;DHT22;57944;48.722;9.316;2023-04-03T09:20:19;8.80;98.00
70475;DHT22;57944;48.722;9.316;2023-04-03T09:22:54;9.10;97.00
70475;DHT22;57944;48.722;9.316;2023-04-03T09:25:28;9.00;96.20
70475;DHT22;57944;48.722;9.316;2023-04-03T09:28:04;8.70;96.50
70475;DHT22;57944;48.722;9.316;2023-04-03T09:30:38;9.10;96.50
70475;DHT22;57944;48.722;9.316;2023-04-03T09:33:08;8.90;96.60
70475;DHT22;57944;48.722;9.316;2023-04-03T09:35:40;9.30;95.40
70475;DHT22;57944;48.722;9.316;2023-04-03T09:38:15;9.50;94.60
70475;DHT22;57944;48.722;9.316;2023-04-03T09:40:51;9.50;95.30
70475;DHT22;57944;48.722;9.316;2023-04-03T09:43:36;9.20;95.30
70475;DHT22;57944;48.722;9.316;2023-04-03T09:46:20;8.70;95.70
70475;DHT22;57944;48.722;9.316;2023-04-03T09:48:56;8.90;96.60
70475;DHT22;57944;48.722;9.316;2023-04-03T09:51:35;9.30;96.10
70475;DHT22;57944;48.722;9.316;2023-04-03T09:57:09;9.80;95.00
70475;DHT22;57944;48.722;9.316;2023-04-03T09:59:43;9.80;94.00
70475;DHT22;57944;48.722;9.316;2023-04-03T10:02:25;9.40;93.80
70475;DHT22;57944;48.722;9.316;2023-04-03T10:05:02;8.60;95.30
70475;DHT22;57944;48.722;9.316;2023-04-03T10:07:37;8.50;95.10
70475;DHT22;57944;48.722;9.316;2023-04-03T10:10:18;8.30;95.20
70475;DHT22;57944;48.722;9.316;2023-04-03T10:13:06;8.50;95.70
70475;DHT22;57944;48.722;9.316;2023-04-03T10:15:45;8.30;95.60
70475;DHT22;57944;48.722;9.316;2023-04-03T10:18:26;8.10;95.80
70475;DHT22;57944;48.722;9.316;2023-04-03T10:21:02;8.30;96.70
70475;DHT22;57944;48.722;9.316;2023-04-03T10:23:54;8.50;96.80
70475;DHT22;57944;48.722;9.316;2023-04-03T10:26:32;8.10;95.60
70475;DHT22;57944;48.722;9.316;2023-04-03T10:29:15;7.40;96.30
70475;DHT22;57944;48.722;9.316;2023-04-03T10:31:59;7.20;97.00
70475;DHT22;57944;48.722;9.316;2023-04-03T10:34:41;7.30;97.00
70475;DHT22;57944;48.722;9.316;2023-04-03T10:37:30;7.50;96.40
70475;DHT22;57944;48.722;9.316;2023-04-03T10:40:15;7.50;96.70
70475;DHT22;57944;48.722;9.316;2023-04-03T10:42:55;7.70;96.20
70475;DHT22;57944;48.722;9.316;2023-04-03T10:45:37;7.70;95.50
70475;DHT22;57944;48.722;9.316;2023-04-03T10:48:21;7.50;95.90
70475;DHT22;57944;48.722;9.316;2023-04-03T10:51:06;7.40;96.50
70475;DHT22;57944;48.722;9.316;2023-04-03T10:53:48;7.40;96.20
70475;DHT22;57944;48.722;9.316;2023-04-03T10:56:24;7.50;95.90
70475;DHT22;57944;48.722;9.316;2023-04-03T10:59:02;8.00;97.60
70475;DHT22;57944;48.722;9.316;2023-04-03T11:01:41;8.20;96.40
70475;DHT22;57944;48.722;9.316;2023-04-03T11:04:13;8.20;96.20
70475;DHT22;57944;48.722;9.316;2023-04-03T11:06:49;8.20;95.70
70475;DHT22;57944;48.722;9.316;2023-04-03T11:09:24;8.10;95.60
70475;DHT22;57944;48.722;9.316;2023-04-03T11:12:00;7.80;95.10
70475;DHT22;57944;48.722;9.316;2023-04-03T11:14:34;7.60;94.90
70475;DHT22;57944;48.722;9.316;2023-04-03T11:17:11;7.60;95.40
70475;DHT22;57944;48.722;9.316;2023-04-03T11:19:50;7.60;94.90
70475;DHT22;57944;48.722;9.316;2023-04-03T11:22:30;7.50;94.80
70475;DHT22;57944;48.722;9.316;2023-04-03T11:25:05;7.40;94.90
70475;DHT22;57944;48.722;9.316;2023-04-03T11:27:47;7.80;96.60
70475;DHT22;57944;48.722;9.316;2023-04-03T11:30:21;8.20;93.90
70475;DHT22;57944;48.722;9.316;2023-04-03T11:33:01;8.70;94.50
70475;DHT22;57944;48.722;9.316;2023-04-03T11:35:47;9.00;93.30
70475;DHT22;57944;48.722;9.316;2023-04-03T11:38:25;9.10;93.40
70475;DHT22;57944;48.722;9.316;2023-04-03T11:41:01;8.60;91.70
70475;DHT22;57944;48.722;9.316;2023-04-03T11:43:39;8.30;92.40
70475;DHT22;57944;48.722;9.316;2023-04-03T11:46:11;8.00;91.50
70475;DHT22;57944;48.722;9.316;2023-04-03T11:48:48;7.90;92.90
70475;DHT22;57944;48.722;9.316;2023-04-03T12:12:58;8.60;92.90
70475;DHT22;57944;48.722;9.316;2023-04-03T12:24:34;9.60;90.40
70475;DHT22;57944;48.722;9.316;2023-04-03T12:30:12;9.40;89.20
70475;DHT22;57944;48.722;9.316;2023-04-03T12:32:47;9.70;91.20
70475;DHT22;57944;48.722;9.316;2023-04-03T12:35:39;9.80;89.40
70475;DHT22;57944;48.722;9.316;2023-04-03T12:38:25;10.00;90.40
70475;DHT22;57944;48.722;9.316;2023-04-03T12:41:18;9.70;88.10
70475;DHT22;57944;48.722;9.316;2023-04-03T12:43:56;9.80;91.10
70475;DHT22;57944;48.722;9.316;2023-04-03T12:46:41;10.50;89.10
70475;DHT22;57944;48.722;9.316;2023-04-03T12:49:26;10.70;86.70
70475;DHT22;57944;48.722;9.316;2023-04-03T12:52:05;10.60;90.00
70475;DHT22;57944;48.722;9.316;2023-04-03T12:54:46;10.70;85.50
70475;DHT22;57944;48.722;9.316;2023-04-03T12:57:23;10.50;86.10
70475;DHT22;57944;48.722;9.316;2023-04-03T12:59:54;10.90;83.50
70475;DHT22;57944;48.722;9.316;2023-04-03T13:02:26;10.70;83.20
70475;DHT22;57944;48.722;9.316;2023-04-03T13:04:58;10.50;86.10
70475;DHT22;57944;48.722;9.316;2023-04-03T13:07:35;10.70;87.10
70475;DHT22;57944;48.722;9.316;2023-04-03T13:10:13;10.70;81.50
70475;DHT22;57944;48.722;9.316;2023-04-03T13:12:49;10.80;81.30
70475;DHT22;57944;48.722;9.316;2023-04-03T13:15:21;11.10;82.60
70475;DHT22;57944;48.722;9.316;2023-04-03T13:17:54;10.20;84.00
70475;DHT22;57944;48.722;9.316;2023-04-03T13:20:25;9.60;87.10
70475;DHT22;57944;48.722;9.316;2023-04-03T13:22:58;8.90;89.10
70475;DHT22;57944;48.722;9.316;2023-04-03T13:25:32;9.10;90.10
70475;DHT22;57944;48.722;9.316;2023-04-03T13:28:09;9.40;89.60
70475;DHT22;57944;48.722;9.316;2023-04-03T13:30:53;9.50;89.70
70475;DHT22;57944;48.722;9.316;2023-04-03T13:33:26;9.70;86.10
70475;DHT22;57944;48.722;9.316;2023-04-03T13:36:00;10.00;83.40
70475;DHT22;57944;48.722;9.316;2023-04-03T13:38:34;9.80;86.10
70475;DHT22;57944;48.722;9.316;2023-04-03T13:41:20;9.60;84.70
70475;DHT22;57944;48.722;9.316;2023-04-03T13:43:55;9.50;83.90
70475;DHT22;57944;48.722;9.316;2023-04-03T13:46:38;9.00;83.40
70475;DHT22;57944;48.722;9.316;2023-04-03T13:49:17;9.00;83.50
70475;DHT22;57944;48.722;9.316;2023-04-03T13:51:50;9.10;84.20
70475;DHT22;57944;48.722;9.316;2023-04-03T13:54:33;9.30;84.40
70475;DHT22;57944;48.722;9.316;2023-04-03T13:57:11;9.60;85.80
70475;DHT22;57944;48.722;9.316;2023-04-03T13:59:46;9.90;82.70
70475;DHT22;57944;48.722;9.316;2023-04-03T14:02:18;9.80;83.70
70475;DHT22;57944;48.722;9.316;2023-04-03T14:04:52;10.10;84.60
70475;DHT22;57944;48.722;9.316;2023-04-03T14:07:25;10.00;82.20
70475;DHT22;57944;48.722;9.316;2023-04-03T14:09:56;9.70;84.30
70475;DHT22;57944;48.722;9.316;2023-04-03T14:12:27;9.80;85.50
70475;DHT22;57944;48.722;9.316;2023-04-03T14:15:04;9.60;82.90
70475;DHT22;57944;48.722;9.316;2023-04-03T14:17:42;9.90;86.40
70475;DHT22;57944;48.722;9.316;2023-04-03T14:20:14;9.90;86.10
70475;DHT22;57944;48.722;9.316;2023-04-03T14:22:45;9.50;81.90
70475;DHT22;57944;48.722;9.316;2023-04-03T14:25:15;9.00;84.90
70475;DHT22;57944;48.722;9.316;2023-04-03T14:27:46;8.90;83.60
70475;DHT22;57944;48.722;9.316;2023-04-03T14:30:21;8.90;88.50
70475;DHT22;57944;48.722;9.316;2023-04-03T14:32:53;9.10;85.70
70475;DHT22;57944;48.722;9.316;2023-04-03T14:35:24;9.50;82.90
70475;DHT22;57944;48.722;9.316;2023-04-03T14:37:55;10.30;81.10
70475;DHT22;57944;48.722;9.316;2023-04-03T14:40:26;10.80;78.30
70475;DHT22;57944;48.722;9.316;2023-04-03T14:42:57;10.90;79.30
70475;DHT22;57944;48.722;9.316;2023-04-03T14:45:30;9.80;82.20
70475;DHT22;57944;48.722;9.316;2023-04-03T14:48:00;8.70;85.50
70475;DHT22;57944;48.722;9.316;2023-04-03T14:50:30;8.60;89.80
70475;DHT22;57944;48.722;9.316;2023-04-03T14:53:00;8.70;87.30
70475;DHT22;57944;48.722;9.316;2023-04-03T14:55:35;8.60;85.70
70475;DHT22;57944;48.722;9.316;2023-04-03T14:58:05;8.50;86.20
70475;DHT22;57944;48.722;9.316;2023-04-03T15:00:38;8.40;85.40
70475;DHT22;57944;48.722;9.316;2023-04-03T15:03:12;8.60;85.70
70475;DHT22;57944;48.722;9.316;2023-04-03T15:05:43;8.70;86.50
70475;DHT22;57944;48.722;9.316;2023-04-03T15:08:19;8.70;86.80
70475;DHT22;57944;48.722;9.316;2023-04-03T15:10:51;8.50;84.60
70475;DHT22;57944;48.722;9.316;2023-04-03T15:13:22;8.30;85.00
70475;DHT22;57944;48.722;9.316;2023-04-03T15:15:57;8.40;86.10
70475;DHT22;57944;48.722;9.316;2023-04-03T15:18:27;8.20;86.10
70475;DHT22;57944;48.722;9.316;2023-04-03T15:21:05;8.10;85.30
70475;DHT22;57944;48.722;9.316;2023-04-03T15:23:35;7.80;89.10
70475;DHT22;57944;48.722;9.316;2023-04-03T15:26:05;7.50;86.40
70475;DHT22;57944;48.722;9.316;2023-04-03T15:28:37;7.40;86.70
70475;DHT22;57944;48.722;9.316;2023-04-03T15:31:11;7.40;88.90
70475;DHT22;57944;48.722;9.316;2023-04-03T15:33:42;7.20;88.00
70475;DHT22;57944;48.722;9.316;2023-04-03T15:36:12;7.40;89.90
70475;DHT22;57944;48.722;9.316;2023-04-03T15:38:59;7.30;87.70
70475;DHT22;57944;48.722;9.316;2023-04-03T15:41:30;7.40;89.30
70475;DHT22;57944;48.722;9.316;2023-04-03T15:44:00;7.40;87.70
70475;DHT22;57944;48.722;9.316;2023-04-03T15:46:33;8.20;86.60
70475;DHT22;57944;48.722;9.316;2023-04-03T15:49:03;8.60;83.70
70475;DHT22;57944;48.722;9.316;2023-04-03T15:51:33;8.60;81.80
70475;DHT22;57944;48.722;9.316;2023-04-03T15:54:05;9.10;81.20
70475;DHT22;57944;48.722;9.316;2023-04-03T15:56:35;9.80;82.10
70475;DHT22;57944;48.722;9.316;2023-04-03T15:59:05;9.40;81.20
70475;DHT22;57944;48.722;9.316;2023-04-03T16:01:38;8.90;82.20
70475;DHT22;57944;48.722;9.316;2023-04-03T16:04:09;8.20;82.10
70475;DHT22;57944;48.722;9.316;2023-04-03T16:06:41;7.70;82.00
70475;DHT22;57944;48.722;9.316;2023-04-03T16:09:12;7.50;84.80
70475;DHT22;57944;48.722;9.316;2023-04-03T16:11:42;7.20;89.40
70475;DHT22;57944;48.722;9.316;2023-04-03T16:14:12;7.10;85.70
70475;DHT22;57944;48.722;9.316;2023-04-03T16:16:45;6.90;85.30
70475;DHT22;57944;48.722;9.316;2023-04-03T16:19:15;7.00;86.60
70475;DHT22;57944;48.722;9.316;2023-04-03T16:21:47;7.00;87.40
70475;DHT22;57944;48.722;9.316;2023-04-03T16:24:18;7.20;85.30
70475;DHT22;57944;48.722;9.316;2023-04-03T16:26:48;7.40;85.40
70475;DHT22;57944;48.722;9.316;2023-04-03T16:29:20;7.40;83.90
70475;DHT22;57944;48.722;9.316;2023-04-03T16:31:53;7.30;84.80
70475;DHT22;57944;48.722;9.316;2023-04-03T16:34:23;7.30;83.60
70475;DHT22;57944;48.722;9.316;2023-04-03T16:36:54;7.30;87.00
70475;DHT22;57944;48.722;9.316;2023-04-03T16:39:24;7.20;84.30
70475;DHT22;57944;48.722;9.316;2023-04-03T16:41:55;7.10;84.00
70475;DHT22;57944;48.722;9.316;2023-04-03T16:44:25;7.30;86.10
70475;DHT22;57944;48.722;9.316;2023-04-03T16:46:58;7.30;88.20
70475;DHT22;57944;48.722;9.316;2023-04-03T16:49:28;7.20;83.70
70475;DHT22;57944;48.722;9.316;2023-04-03T16:51:59;7.30;81.70
70475;DHT22;57944;48.722;9.316;2023-04-03T16:54:30;7.20;81.00
70475;DHT22;57944;48.722;9.316;2023-04-03T16:57:01;7.20;83.00
70475;DHT22;57944;48.722;9.316;2023-04-03T16:59:32;7.00;81.30
70475;DHT22;57944;48.722;9.316;2023-04-03T17:02:05;6.80;82.00